createdAt,value
2023-04-03T00:00:01.729Z,3.44
2023-04-03T00:03:44.779Z,3.49
2023-04-03T00:07:27.459Z,3.51
2023-04-03T00:11:10.894Z,3.52
2023-04-03T00:14:53.540Z,3.53
2023-04-03T00:18:38.156Z,3.61
2023-04-03T00:22:20.840Z,3.60
2023-04-03T00:26:04.165Z,3.61
2023-04-03T00:29:46.865Z,3.67
2023-04-03T00:33:29.628Z,3.69
2023-04-03T00:37:13.638Z,3.69
2023-04-03T00:40:56.334Z,3.68
2023-04-03T00:45:16.368Z,3.68
2023-04-03T00:48:59.030Z,3.66
2023-04-03T00:52:43.141Z,3.75
2023-04-03T00:56:27.555Z,3.72
2023-04-03T01:00:13.287Z,3.76
2023-04-03T01:03:56.522Z,3.79
2023-04-03T01:07:39.499Z,3.78
2023-04-03T01:11:23.736Z,3.80
2023-04-03T01:15:08.751Z,3.81
2023-04-03T01:18:51.481Z,3.85
2023-04-03T01:22:40.953Z,3.84
2023-04-03T01:26:25.046Z,3.84
2023-04-03T01:30:09.088Z,3.80
2023-04-03T01:33:53.453Z,3.78
2023-04-03T01:37:36.110Z,3.73
2023-04-03T01:41:19.109Z,3.70
2023-04-03T01:45:01.812Z,3.74
2023-04-03T01:48:44.751Z,3.73
2023-04-03T01:52:28.800Z,3.73
2023-04-03T01:56:11.512Z,3.77
2023-04-03T01:59:54.176Z,3.73
2023-04-03T02:03:37.045Z,3.76
2023-04-03T02:07:19.727Z,3.73
2023-04-03T02:11:03.793Z,3.73
2023-04-03T02:14:46.518Z,3.72
2023-04-03T02:18:29.168Z,3.77
2023-04-03T02:22:11.845Z,3.76
2023-04-03T02:26:03.864Z,3.77
2023-04-03T02:29:47.893Z,3.75
2023-04-03T02:33:30.836Z,3.75
2023-04-03T02:37:13.491Z,3.74
2023-04-03T02:41:01.887Z,3.76
2023-04-03T02:44:44.518Z,3.79
2023-04-03T02:48:28.610Z,3.81
2023-04-03T02:52:11.527Z,3.81
2023-04-03T02:55:54.189Z,3.77
2023-04-03T02:59:36.974Z,3.72
2023-04-03T03:03:19.642Z,3.74
2023-04-03T03:07:03.869Z,3.73
2023-04-03T03:10:46.565Z,3.74
2023-04-03T03:14:29.298Z,3.76
2023-04-03T03:18:11.935Z,3.79
2023-04-03T03:21:54.598Z,3.81
2023-04-03T03:25:41.286Z,3.79
2023-04-03T03:29:24.228Z,3.78
2023-04-03T03:33:06.987Z,3.79
2023-04-03T03:36:49.677Z,3.79
2023-04-03T03:40:32.394Z,3.83
2023-04-03T03:44:16.471Z,3.79
2023-04-03T03:47:59.220Z,3.76
2023-04-03T03:51:41.985Z,3.77
2023-04-03T03:55:24.688Z,3.73
2023-04-03T03:59:07.704Z,3.69
2023-04-03T04:02:51.815Z,3.72
2023-04-03T04:06:34.591Z,3.72
2023-04-03T04:10:17.533Z,3.70
2023-04-03T04:14:00.225Z,3.74
2023-04-03T04:17:42.912Z,3.72
2023-04-03T04:21:27.570Z,3.75
2023-04-03T04:25:10.828Z,3.74
2023-04-03T04:28:53.646Z,3.80
2023-04-03T04:32:36.655Z,3.75
2023-04-03T04:36:19.433Z,3.77
2023-04-03T04:40:03.985Z,3.73
2023-04-03T04:43:46.726Z,3.77
2023-04-03T04:47:31.314Z,3.66
2023-04-03T04:51:14.238Z,3.66
2023-04-03T04:54:57.020Z,3.66
2023-04-03T04:58:41.017Z,3.66
2023-04-03T05:02:23.772Z,3.66
2023-04-03T05:06:06.802Z,3.66
2023-04-03T05:09:49.539Z,3.70
2023-04-03T05:13:32.204Z,3.74
2023-04-03T05:17:16.394Z,3.74
2023-04-03T05:20:59.667Z,3.80
2023-04-03T05:24:42.339Z,3.71
2023-04-03T05:28:25.352Z,3.61
2023-04-03T05:32:07.956Z,3.60
2023-04-03T05:35:52.135Z,3.64
2023-04-03T05:39:34.995Z,3.69
2023-04-03T05:43:17.866Z,3.74
2023-04-03T05:47:00.675Z,3.78
2023-04-03T05:50:43.426Z,3.72
2023-04-03T05:54:28.947Z,3.75
2023-04-03T05:58:11.944Z,3.76
2023-04-03T06:01:54.630Z,3.74
2023-04-03T06:05:37.528Z,3.69
2023-04-03T06:09:22.004Z,3.71
2023-04-03T06:13:06.982Z,3.71
2023-04-03T06:16:50.550Z,3.66
2023-04-03T06:20:33.305Z,3.68
2023-04-03T06:24:18.327Z,3.81
2023-04-03T06:28:01.888Z,3.85
2023-04-03T06:31:46.353Z,3.85
2023-04-03T06:35:29.554Z,3.96
2023-04-03T06:39:15.155Z,3.95
2023-04-03T06:42:57.857Z,3.94
2023-04-03T06:46:41.253Z,4.00
2023-04-03T06:50:25.483Z,4.05
2023-04-03T06:54:09.312Z,3.98
2023-04-03T06:57:52.770Z,3.93
2023-04-03T07:01:35.456Z,4.00
2023-04-03T07:05:18.206Z,3.90
2023-04-03T07:09:03.756Z,3.92
2023-04-03T07:12:47.189Z,3.87
2023-04-03T07:16:31.970Z,4.07
2023-04-03T07:20:16.094Z,4.19
2023-04-03T07:23:58.793Z,4.29
2023-04-03T07:27:43.402Z,4.48
2023-04-03T07:31:26.339Z,4.60
2023-04-03T07:35:09.630Z,4.72
2023-04-03T07:38:52.348Z,4.73
2023-04-03T07:42:34.996Z,4.63
2023-04-03T07:46:19.739Z,4.55
2023-04-03T07:50:02.618Z,4.59
2023-04-03T07:53:45.269Z,4.67
2023-04-03T07:57:27.924Z,4.71
2023-04-03T08:01:11.550Z,4.68
2023-04-03T08:04:56.180Z,4.63
2023-04-03T08:08:39.084Z,4.64
2023-04-03T08:12:21.964Z,4.65
2023-04-03T08:16:12.806Z,4.57
2023-04-03T08:19:56.911Z,4.59
2023-04-03T08:23:39.672Z,4.45
2023-04-03T08:27:22.378Z,4.31
2023-04-03T08:31:07.988Z,4.29
2023-04-03T08:34:50.890Z,4.52
2023-04-03T08:38:37.746Z,4.50
2023-04-03T08:42:29.818Z,4.53
2023-04-03T08:46:17.075Z,4.45
2023-04-03T08:50:01.509Z,4.56
2023-04-03T08:53:49.331Z,4.58
2023-04-03T08:57:33.535Z,4.67
2023-04-03T09:01:21.865Z,4.79
2023-04-03T09:05:11.401Z,4.81
2023-04-03T09:09:02.562Z,4.78
2023-04-03T09:12:48.700Z,4.89
2023-04-03T09:16:49.945Z,5.01
2023-04-03T09:20:42.551Z,5.05
2023-04-03T09:24:26.950Z,5.11
2023-04-03T09:28:11.189Z,5.23
2023-04-03T09:31:58.474Z,5.33
2023-04-03T09:35:48.067Z,5.35
2023-04-03T09:39:32.903Z,5.36
2023-04-03T09:43:36.742Z,5.43
2023-04-03T09:47:21.167Z,5.52
2023-04-03T09:51:04.038Z,5.54
2023-04-03T09:54:48.102Z,5.51
2023-04-03T09:58:46.787Z,5.52
2023-04-03T10:02:38.566Z,5.52
2023-04-03T10:06:25.191Z,5.50
2023-04-03T10:10:21.273Z,5.53
2023-04-03T10:14:07.857Z,5.45
2023-04-03T10:17:56.364Z,5.35
2023-04-03T10:21:45.111Z,5.32
2023-04-03T10:25:33.915Z,5.35
2023-04-03T10:29:27.074Z,5.26
2023-04-03T10:33:31.584Z,5.28
2023-04-03T10:37:20.648Z,5.27
2023-04-03T10:41:09.879Z,5.31
2023-04-03T10:45:03.615Z,5.31
2023-04-03T10:48:55.122Z,5.24
2023-04-03T10:52:41.600Z,5.12
2023-04-03T10:56:33.577Z,4.89
2023-04-03T11:00:19.334Z,4.69
2023-04-03T11:04:03.631Z,4.50
2023-04-03T11:07:50.053Z,4.37
2023-04-03T11:11:36.327Z,4.40
2023-04-03T11:15:21.779Z,4.42
2023-04-03T11:19:07.373Z,4.54
2023-04-03T11:22:53.726Z,4.53
2023-04-03T11:26:41.228Z,4.54
2023-04-03T11:30:27.144Z,4.53
2023-04-03T11:34:19.514Z,4.53
2023-04-03T11:38:03.783Z,4.56
2023-04-03T11:41:47.956Z,4.63
2023-04-03T11:45:48.273Z,4.64
2023-04-03T11:49:59.184Z,4.66
2023-04-03T11:53:43.121Z,4.80
2023-04-03T11:58:05.173Z,5.05
2023-04-03T12:01:49.684Z,5.25
2023-04-03T12:05:32.823Z,5.42
2023-04-03T12:09:25.754Z,5.55
2023-04-03T12:13:17.900Z,5.62
2023-04-03T12:17:01.031Z,5.66
2023-04-03T12:20:58.189Z,5.71
2023-04-03T12:24:41.989Z,5.81
2023-04-03T12:28:26.575Z,5.86
2023-04-03T12:32:14.476Z,5.72
2023-04-03T12:36:05.954Z,5.73
2023-04-03T12:40:06.774Z,5.83
2023-04-03T12:44:03.700Z,5.97
2023-04-03T12:47:47.115Z,6.08
2023-04-03T12:51:36.003Z,6.15
2023-04-03T12:55:21.152Z,6.17
2023-04-03T12:59:18.175Z,6.37
2023-04-03T13:03:01.472Z,6.52
2023-04-03T13:06:45.755Z,6.66
2023-04-03T13:10:28.455Z,6.49
2023-04-03T13:14:18.499Z,6.33
2023-04-03T13:18:01.550Z,6.30
2023-04-03T13:21:45.088Z,6.30
2023-04-03T13:25:30.591Z,7.16
2023-04-03T13:29:31.067Z,7.71
2023-04-03T13:33:23.787Z,8.03
2023-04-03T13:37:08.361Z,8.15
2023-04-03T13:40:52.467Z,8.18
2023-04-03T13:44:40.465Z,7.90
2023-04-03T13:48:24.754Z,7.61
2023-04-03T13:52:25.928Z,7.36
2023-04-03T13:56:10.397Z,7.12
2023-04-03T13:59:55.053Z,6.94
2023-04-03T14:03:43.994Z,6.79
2023-04-03T14:07:27.319Z,6.62
2023-04-03T14:11:16.378Z,6.50
2023-04-03T14:15:01.000Z,6.51
2023-04-03T14:18:43.828Z,6.42
2023-04-03T14:22:29.300Z,6.43
2023-04-03T14:26:14.464Z,6.51
2023-04-03T14:29:58.966Z,6.75
2023-04-03T14:33:43.218Z,6.92
2023-04-03T14:37:28.787Z,6.98
2023-04-03T14:41:16.820Z,7.40
2023-04-03T14:45:00.102Z,7.94
2023-04-03T14:48:44.417Z,8.56
2023-04-03T14:52:29.140Z,8.87
2023-04-03T14:56:16.973Z,8.92
2023-04-03T14:59:59.961Z,8.88
2023-04-03T15:03:44.126Z,8.74
2023-04-03T15:07:29.927Z,8.36
2023-04-03T15:11:13.070Z,7.95
2023-04-03T15:15:01.746Z,7.70
2023-04-03T15:18:48.216Z,7.50
2023-04-03T15:22:30.987Z,7.35
2023-04-03T15:26:13.800Z,7.21
2023-04-03T15:29:56.514Z,7.09
2023-04-03T15:33:39.427Z,7.12
2023-04-03T15:37:23.526Z,7.15
2023-04-03T15:41:06.318Z,7.06
2023-04-03T15:44:48.977Z,7.08
2023-04-03T15:48:31.802Z,7.15
2023-04-03T15:52:14.545Z,7.31
2023-04-03T15:55:58.573Z,7.33
2023-04-03T15:59:41.501Z,7.28
2023-04-03T16:03:25.406Z,7.37
2023-04-03T16:07:08.236Z,7.70
2023-04-03T16:10:51.062Z,7.74
2023-04-03T16:14:35.056Z,7.69
2023-04-03T16:18:19.377Z,7.53
2023-04-03T16:22:02.052Z,7.51
2023-04-03T16:25:47.142Z,7.37
2023-04-03T16:29:29.906Z,7.24
2023-04-03T16:33:14.403Z,7.15
2023-04-03T16:36:59.173Z,6.93
2023-04-03T16:40:41.924Z,6.68
2023-04-03T16:44:24.565Z,6.52
2023-04-03T16:48:07.525Z,6.39
2023-04-03T16:51:51.700Z,6.34
2023-04-03T16:55:34.492Z,6.25
2023-04-03T16:59:17.236Z,6.24
2023-04-03T17:02:59.930Z,6.26
2023-04-03T17:06:42.637Z,6.19
2023-04-03T17:10:27.056Z,6.05
2023-04-03T17:14:09.705Z,5.85
2023-04-03T17:17:53.722Z,5.72
2023-04-03T17:21:36.393Z,5.56
2023-04-03T17:25:20.100Z,5.46
2023-04-03T17:29:04.376Z,5.45
2023-04-03T17:32:47.020Z,5.41
2023-04-03T17:36:30.086Z,5.42
2023-04-03T17:40:14.966Z,5.25
2023-04-03T17:43:57.592Z,5.23
2023-04-03T17:47:41.676Z,5.32
2023-04-03T17:51:25.218Z,5.32
2023-04-03T17:55:08.714Z,5.30
2023-04-03T17:58:52.098Z,5.35
2023-04-03T18:02:35.021Z,5.30
2023-04-03T18:06:20.719Z,5.25
2023-04-03T18:10:05.005Z,5.31
2023-04-03T18:13:47.975Z,5.27
2023-04-03T18:17:30.932Z,5.25
2023-04-03T18:21:14.843Z,5.28
2023-04-03T18:24:59.277Z,5.20
2023-04-03T18:28:44.207Z,5.17
2023-04-03T18:32:27.012Z,5.06
2023-04-03T18:36:10.366Z,4.95
2023-04-03T18:39:53.240Z,4.93
2023-04-03T18:43:37.377Z,5.13
2023-04-03T18:47:20.138Z,5.52
2023-04-03T18:51:03.127Z,5.29
2023-04-03T18:54:45.799Z,5.24
2023-04-03T18:58:28.405Z,5.25
2023-04-03T19:02:12.945Z,5.21
2023-04-03T19:05:55.641Z,5.08
2023-04-03T19:09:39.492Z,5.03
2023-04-03T19:13:22.109Z,4.93
2023-04-03T19:17:07.337Z,4.76
2023-04-03T19:20:51.386Z,4.65
2023-04-03T19:24:34.130Z,4.36
2023-04-03T19:28:16.780Z,4.16
2023-04-03T19:32:00.185Z,4.04
2023-04-03T19:35:44.931Z,3.97
2023-04-03T19:39:30.853Z,4.00
2023-04-03T19:43:14.229Z,3.79
2023-04-03T19:46:57.198Z,3.68
2023-04-03T19:50:39.876Z,3.61
2023-04-03T19:54:23.477Z,3.50
2023-04-03T19:58:07.954Z,3.48
2023-04-03T20:01:50.920Z,3.40
2023-04-03T20:05:34.166Z,3.35
2023-04-03T20:09:18.221Z,3.30
2023-04-03T20:13:00.865Z,3.33
2023-04-03T20:16:45.468Z,3.28
2023-04-03T20:20:28.608Z,3.20
2023-04-03T20:24:13.045Z,3.15
2023-04-03T20:27:58.001Z,3.18
2023-04-03T20:31:42.009Z,3.16
2023-04-03T20:35:27.785Z,3.06
2023-04-03T20:39:10.752Z,2.98
2023-04-03T20:42:53.943Z,3.08
2023-04-03T20:46:51.585Z,3.03
2023-04-03T20:50:36.767Z,3.10
2023-04-03T20:54:19.472Z,3.07
2023-04-03T20:58:02.222Z,3.03
2023-04-03T21:01:45.010Z,3.05
2023-04-03T21:05:30.306Z,3.02
2023-04-03T21:09:51.517Z,2.94
2023-04-03T21:14:12.639Z,2.88
2023-04-03T21:18:07.651Z,2.85
2023-04-03T21:21:51.993Z,2.79
2023-04-03T21:25:35.125Z,2.75
2023-04-03T21:29:17.755Z,2.68
2023-04-03T21:33:01.819Z,2.53
2023-04-03T21:36:45.068Z,2.41
2023-04-03T21:40:27.845Z,2.35
2023-04-03T21:44:10.574Z,2.26
2023-04-03T21:47:53.806Z,2.32
2023-04-03T21:51:38.883Z,2.34
2023-04-03T21:55:21.572Z,2.32
2023-04-03T21:59:04.457Z,2.20
2023-04-03T22:02:47.581Z,2.18
2023-04-03T22:06:31.192Z,2.16
2023-04-03T22:10:15.605Z,2.18
2023-04-03T22:13:58.384Z,2.20
2023-04-03T22:17:41.050Z,2.12
2023-04-03T22:21:23.716Z,2.12
2023-04-03T22:25:07.326Z,2.14
2023-04-03T22:28:51.421Z,2.14
2023-04-03T22:32:34.147Z,2.14
2023-04-03T22:36:16.858Z,2.11
2023-04-03T22:39:59.585Z,2.13
2023-04-03T22:43:42.707Z,2.13
2023-04-03T22:47:26.953Z,2.12
2023-04-03T22:51:09.766Z,2.08
2023-04-03T22:54:52.373Z,2.06
2023-04-03T22:58:35.394Z,1.95
2023-04-03T23:02:18.054Z,1.78
2023-04-03T23:06:03.465Z,1.67
2023-04-03T23:09:46.136Z,1.66
2023-04-03T23:13:29.091Z,1.65
2023-04-03T23:17:11.728Z,1.60
2023-04-03T23:20:54.656Z,1.55
2023-04-03T23:24:39.768Z,1.55
2023-04-03T23:28:22.876Z,1.57
2023-04-03T23:32:05.976Z,1.46
2023-04-03T23:35:49.108Z,1.47
2023-04-03T23:39:33.059Z,1.49
2023-04-03T23:43:17.252Z,1.43
2023-04-03T23:47:00.048Z,1.43
2023-04-03T23:50:43.053Z,1.42
2023-04-03T23:54:33.539Z,1.43
2023-04-03T23:58:19.172Z,1.41
